FDX27 LFPG-KMEM
Flight info
| Callsign | FDX27 |
|---|---|
| Flight time | N/A |
| Altitude | 32000 |
| Route | ELCOB UT300 SENLO JSY LIZAD LESLU TOBOR/M083F320 NATC ELSIR/N0482F320 N414A ANATI POLTY Q804 DERLO Q907 SVM FWA VHP PXV BLUZZ5 |
| Aircraft | B77L/H-SDE1E2E3FGHIJ2J3J4J5M1RWXY/LB1D1 |
Departure
| Time | N/A |
|---|---|
| Airport | Charles de Gaulle International Airport (LFPG) |
Arrival
| Time | 2026-05-07 01:19 |
|---|---|
| Airport | Memphis International Airport (KMEM) |
| Time | Latitude | Longitude | Altitude | Speed | Heading |
|---|---|---|---|---|---|
| 2026-05-07 00:38 | 37.48727 | -88.05656 | 38049 ft | 380 kts | 219° |
| 2026-05-07 00:38 | 37.43898 | -88.08424 | 38044 ft | 382 kts | 218° |
| 2026-05-07 00:39 | 37.38978 | -88.11126 | 38037 ft | 384 kts | 217° |
| 2026-05-07 00:39 | 37.34048 | -88.13777 | 38039 ft | 385 kts | 217° |
| 2026-05-07 00:40 | 37.29146 | -88.16398 | 38039 ft | 385 kts | 217° |
| 2026-05-07 00:40 | 37.24208 | -88.19035 | 38040 ft | 385 kts | 217° |
| 2026-05-07 00:41 | 37.19271 | -88.21669 | 38037 ft | 385 kts | 217° |
| 2026-05-07 00:41 | 37.14376 | -88.24280 | 38033 ft | 385 kts | 217° |
| 2026-05-07 00:42 | 37.09407 | -88.26924 | 38032 ft | 385 kts | 217° |
| 2026-05-07 00:42 | 37.04588 | -88.29661 | 38041 ft | 381 kts | 219° |
| 2026-05-07 00:43 | 36.99819 | -88.32559 | 38029 ft | 381 kts | 219° |
| 2026-05-07 00:43 | 36.95029 | -88.35458 | 38038 ft | 382 kts | 219° |
| 2026-05-07 00:44 | 36.90223 | -88.38340 | 38045 ft | 383 kts | 219° |
| 2026-05-07 00:44 | 36.85438 | -88.41194 | 38042 ft | 384 kts | 219° |
| 2026-05-07 00:45 | 36.80604 | -88.44069 | 38053 ft | 385 kts | 219° |
| 2026-05-07 00:45 | 36.75750 | -88.46952 | 38058 ft | 386 kts | 219° |
| 2026-05-07 00:46 | 36.70888 | -88.49836 | 38060 ft | 386 kts | 219° |
| 2026-05-07 00:46 | 36.66050 | -88.52701 | 38059 ft | 387 kts | 219° |
| 2026-05-07 00:47 | 36.61187 | -88.55578 | 38059 ft | 387 kts | 219° |
| 2026-05-07 00:47 | 36.56315 | -88.58456 | 38053 ft | 387 kts | 218° |
| 2026-05-07 00:48 | 36.51436 | -88.61334 | 38048 ft | 387 kts | 218° |
| 2026-05-07 00:48 | 36.46587 | -88.64190 | 38052 ft | 388 kts | 218° |
| 2026-05-07 00:49 | 36.41704 | -88.67062 | 38051 ft | 387 kts | 218° |
| 2026-05-07 00:49 | 36.36847 | -88.69916 | 38043 ft | 387 kts | 218° |
| 2026-05-07 00:50 | 36.31924 | -88.72813 | 37255 ft | 397 kts | 218° |
| 2026-05-07 00:50 | 36.29432 | -88.74271 | 36490 ft | 396 kts | 217° |
| 2026-05-07 00:50 | 36.26933 | -88.75730 | 35783 ft | 394 kts | 217° |
| 2026-05-07 00:51 | 36.24495 | -88.77149 | 35180 ft | 389 kts | 217° |
| 2026-05-07 00:51 | 36.22048 | -88.78574 | 34579 ft | 386 kts | 217° |
| 2026-05-07 00:51 | 36.19627 | -88.79985 | 33976 ft | 382 kts | 217° |
| 2026-05-07 00:51 | 36.17228 | -88.81386 | 33332 ft | 379 kts | 217° |
| 2026-05-07 00:52 | 36.14859 | -88.82767 | 32753 ft | 375 kts | 216° |
| 2026-05-07 00:52 | 36.13299 | -88.83677 | 32381 ft | 372 kts | 216° |
| 2026-05-07 00:52 | 36.10211 | -88.85477 | 31639 ft | 367 kts | 216° |
| 2026-05-07 00:52 | 36.07914 | -88.86815 | 31112 ft | 364 kts | 216° |
| 2026-05-07 00:53 | 36.05633 | -88.88144 | 30568 ft | 360 kts | 216° |
| 2026-05-07 00:53 | 36.04101 | -88.89036 | 30215 ft | 359 kts | 216° |
| 2026-05-07 00:53 | 36.01876 | -88.90331 | 29610 ft | 356 kts | 215° |
| 2026-05-07 00:53 | 35.99642 | -88.91629 | 29030 ft | 352 kts | 215° |
| 2026-05-07 00:54 | 35.97430 | -88.92913 | 28485 ft | 349 kts | 215° |
| 2026-05-07 00:54 | 35.94538 | -88.94591 | 27794 ft | 344 kts | 215° |
| 2026-05-07 00:54 | 35.93077 | -88.95439 | 27448 ft | 342 kts | 215° |
| 2026-05-07 00:54 | 35.90929 | -88.96685 | 26953 ft | 339 kts | 215° |
| 2026-05-07 00:55 | 35.88794 | -88.97923 | 26458 ft | 337 kts | 215° |
| 2026-05-07 00:55 | 35.86679 | -88.99149 | 25960 ft | 335 kts | 215° |
| 2026-05-07 00:55 | 35.84596 | -89.00355 | 25481 ft | 334 kts | 215° |
| 2026-05-07 00:55 | 35.82498 | -89.01570 | 25001 ft | 332 kts | 215° |
| 2026-05-07 00:56 | 35.80398 | -89.02786 | 24523 ft | 332 kts | 215° |
| 2026-05-07 00:56 | 35.78310 | -89.03993 | 24031 ft | 332 kts | 215° |
| 2026-05-07 00:56 | 35.76214 | -89.05203 | 23548 ft | 332 kts | 215° |
| 2026-05-07 00:56 | 35.74130 | -89.06419 | 22994 ft | 328 kts | 217° |
| 2026-05-07 00:57 | 35.72314 | -89.07943 | 22502 ft | 314 kts | 229° |
| 2026-05-07 00:57 | 35.70796 | -89.09835 | 22021 ft | 309 kts | 232° |
| 2026-05-07 00:57 | 35.69350 | -89.11740 | 21539 ft | 306 kts | 233° |
| 2026-05-07 00:57 | 35.67871 | -89.13691 | 21081 ft | 304 kts | 232° |
| 2026-05-07 00:58 | 35.66422 | -89.15589 | 20609 ft | 303 kts | 232° |
| 2026-05-07 00:58 | 35.64982 | -89.17465 | 20147 ft | 301 kts | 232° |
| 2026-05-07 00:58 | 35.63559 | -89.19310 | 19696 ft | 299 kts | 232° |
| 2026-05-07 00:58 | 35.62128 | -89.21158 | 19241 ft | 298 kts | 232° |
| 2026-05-07 00:59 | 35.59327 | -89.24763 | 18588 ft | 288 kts | 232° |
| 2026-05-07 00:59 | 35.57941 | -89.26542 | 18161 ft | 286 kts | 232° |
| 2026-05-07 00:59 | 35.56567 | -89.28305 | 17686 ft | 284 kts | 232° |
| 2026-05-07 01:00 | 35.55203 | -89.30054 | 17254 ft | 281 kts | 232° |
| 2026-05-07 01:00 | 35.53852 | -89.31785 | 16822 ft | 280 kts | 231° |
| 2026-05-07 01:00 | 35.52503 | -89.33514 | 16396 ft | 282 kts | 231° |
| 2026-05-07 01:00 | 35.51124 | -89.35281 | 16015 ft | 286 kts | 231° |
| 2026-05-07 01:01 | 35.49766 | -89.37021 | 15799 ft | 287 kts | 231° |
| 2026-05-07 01:01 | 35.48381 | -89.38795 | 15532 ft | 290 kts | 231° |
| 2026-05-07 01:01 | 35.46978 | -89.40593 | 15293 ft | 291 kts | 231° |
| 2026-05-07 01:01 | 35.45580 | -89.42382 | 15068 ft | 291 kts | 231° |
| 2026-05-07 01:02 | 35.44178 | -89.44175 | 14827 ft | 290 kts | 231° |
| 2026-05-07 01:02 | 35.42777 | -89.45966 | 14594 ft | 290 kts | 231° |
| 2026-05-07 01:02 | 35.41381 | -89.47751 | 14359 ft | 289 kts | 231° |
| 2026-05-07 01:02 | 35.39985 | -89.49535 | 14136 ft | 289 kts | 231° |
| 2026-05-07 01:03 | 35.38607 | -89.51295 | 13920 ft | 288 kts | 231° |
| 2026-05-07 01:03 | 35.37217 | -89.53070 | 13668 ft | 288 kts | 231° |
| 2026-05-07 01:03 | 35.35828 | -89.54842 | 13425 ft | 288 kts | 231° |
| 2026-05-07 01:03 | 35.34434 | -89.56619 | 13178 ft | 287 kts | 231° |
| 2026-05-07 01:04 | 35.33046 | -89.58387 | 12956 ft | 287 kts | 231° |
| 2026-05-07 01:04 | 35.31662 | -89.60151 | 12728 ft | 288 kts | 231° |
| 2026-05-07 01:04 | 35.30288 | -89.61899 | 12523 ft | 282 kts | 231° |
| 2026-05-07 01:04 | 35.28962 | -89.63582 | 12283 ft | 273 kts | 231° |
| 2026-05-07 01:05 | 35.27646 | -89.65252 | 12077 ft | 264 kts | 231° |
| 2026-05-07 01:05 | 35.26404 | -89.66830 | 11815 ft | 258 kts | 231° |
| 2026-05-07 01:05 | 35.25166 | -89.68403 | 11548 ft | 255 kts | 231° |
| 2026-05-07 01:05 | 35.23936 | -89.69967 | 11265 ft | 255 kts | 231° |
| 2026-05-07 01:06 | 35.22702 | -89.71535 | 11010 ft | 256 kts | 231° |
| 2026-05-07 01:06 | 35.21459 | -89.73115 | 10730 ft | 257 kts | 230° |
| 2026-05-07 01:06 | 35.20232 | -89.74672 | 10451 ft | 258 kts | 230° |
| 2026-05-07 01:06 | 35.18985 | -89.76252 | 10166 ft | 257 kts | 230° |
| 2026-05-07 01:07 | 35.17752 | -89.77811 | 9861 ft | 252 kts | 230° |
| 2026-05-07 01:07 | 35.16539 | -89.79346 | 9555 ft | 248 kts | 230° |
| 2026-05-07 01:07 | 35.15351 | -89.80850 | 9294 ft | 244 kts | 230° |
| 2026-05-07 01:07 | 35.14178 | -89.82334 | 9015 ft | 239 kts | 230° |
| 2026-05-07 01:08 | 35.13049 | -89.83760 | 8749 ft | 232 kts | 230° |
| 2026-05-07 01:08 | 35.11942 | -89.85156 | 8486 ft | 225 kts | 230° |
| 2026-05-07 01:08 | 35.10692 | -89.86239 | 8241 ft | 222 kts | 207° |
| 2026-05-07 01:08 | 35.09165 | -89.86648 | 8002 ft | 229 kts | 190° |
| 2026-05-07 01:09 | 35.07560 | -89.86660 | 7766 ft | 231 kts | 186° |
| 2026-05-07 01:09 | 35.05969 | -89.86618 | 7524 ft | 232 kts | 186° |
| 2026-05-07 01:09 | 35.04352 | -89.86581 | 7267 ft | 233 kts | 186° |
| 2026-05-07 01:09 | 35.02731 | -89.86550 | 7015 ft | 234 kts | 185° |
| 2026-05-07 01:10 | 35.01099 | -89.86521 | 6758 ft | 235 kts | 185° |
| 2026-05-07 01:10 | 34.99467 | -89.86497 | 6493 ft | 232 kts | 185° |
| 2026-05-07 01:10 | 34.97871 | -89.86472 | 6219 ft | 227 kts | 185° |
| 2026-05-07 01:10 | 34.96296 | -89.86450 | 5958 ft | 225 kts | 185° |
| 2026-05-07 01:11 | 34.94724 | -89.86430 | 5706 ft | 226 kts | 184° |
| 2026-05-07 01:11 | 34.93142 | -89.86410 | 5469 ft | 227 kts | 184° |
| 2026-05-07 01:11 | 34.91555 | -89.86390 | 5229 ft | 228 kts | 183° |
| 2026-05-07 01:11 | 34.89984 | -89.86370 | 4980 ft | 230 kts | 183° |
| 2026-05-07 01:12 | 34.88369 | -89.86350 | 4724 ft | 232 kts | 182° |
| 2026-05-07 01:12 | 34.86741 | -89.86330 | 4455 ft | 234 kts | 182° |
| 2026-05-07 01:12 | 34.85121 | -89.86403 | 4164 ft | 230 kts | 195° |
| 2026-05-07 01:12 | 34.83753 | -89.87300 | 3927 ft | 223 kts | 230° |
| 2026-05-07 01:13 | 34.83059 | -89.88916 | 3787 ft | 212 kts | 262° |
| 2026-05-07 01:13 | 34.82898 | -89.90735 | 3842 ft | 221 kts | 268° |
| 2026-05-07 01:13 | 34.82783 | -89.92642 | 3846 ft | 227 kts | 268° |
| 2026-05-07 01:13 | 34.82674 | -89.94563 | 3791 ft | 228 kts | 268° |
| 2026-05-07 01:14 | 34.82840 | -89.96429 | 3508 ft | 226 kts | 297° |
| 2026-05-07 01:14 | 34.83819 | -89.97864 | 3271 ft | 220 kts | 332° |
| 2026-05-07 01:14 | 34.85242 | -89.98343 | 3085 ft | 206 kts | 1° |
| 2026-05-07 01:14 | 34.86650 | -89.98360 | 3039 ft | 200 kts | 1° |
| 2026-05-07 01:15 | 34.88033 | -89.98387 | 3055 ft | 199 kts | 1° |
| 2026-05-07 01:15 | 34.89429 | -89.98414 | 2910 ft | 203 kts | 1° |
| 2026-05-07 01:15 | 34.90842 | -89.98443 | 2640 ft | 201 kts | 1° |
| 2026-05-07 01:15 | 34.92199 | -89.98472 | 2387 ft | 185 kts | 1° |
| 2026-05-07 01:16 | 34.93426 | -89.98499 | 2129 ft | 169 kts | 2° |
| 2026-05-07 01:16 | 34.94546 | -89.98522 | 1913 ft | 155 kts | 2° |
| 2026-05-07 01:16 | 34.95579 | -89.98545 | 1715 ft | 141 kts | 3° |
| 2026-05-07 01:16 | 34.96538 | -89.98564 | 1543 ft | 137 kts | 2° |
| 2026-05-07 01:17 | 34.97489 | -89.98584 | 1345 ft | 140 kts | 2° |
| 2026-05-07 01:17 | 34.98455 | -89.98604 | 1149 ft | 138 kts | 1° |
| 2026-05-07 01:17 | 34.99422 | -89.98625 | 945 ft | 141 kts | 0° |
| 2026-05-07 01:17 | 35.00410 | -89.98647 | 770 ft | 143 kts | 0° |
| 2026-05-07 01:18 | 35.01408 | -89.98670 | 581 ft | 141 kts | 1° |
| 2026-05-07 01:18 | 35.02377 | -89.98690 | 387 ft | 139 kts | 1° |
| 2026-05-07 01:18 | 35.03300 | -89.98706 | 325 ft | 118 kts | 358° |
| 2026-05-07 01:18 | 35.03977 | -89.98725 | 312 ft | 73 kts | 359° |
| 2026-05-07 01:19 | 35.04334 | -89.98729 | 305 ft | 35 kts | 359° |
| 2026-05-07 01:19 | 35.04559 | -89.98687 | 308 ft | 25 kts | 22° |
| 2026-05-07 01:19 | 35.04618 | -89.98651 | 308 ft | 6 kts | 32° |
| 2026-05-07 01:19 | 35.04653 | -89.98616 | 310 ft | 7 kts | 45° |
| 2026-05-07 01:20 | 35.04694 | -89.98536 | 310 ft | 16 kts | 46° |
| 2026-05-07 01:20 | 35.04805 | -89.98513 | 307 ft | 16 kts | 1° |
| 2026-05-07 01:20 | 35.04918 | -89.98514 | 310 ft | 16 kts | 359° |
| 2026-05-07 01:20 | 35.05034 | -89.98517 | 304 ft | 17 kts | 358° |
| 2026-05-07 01:21 | 35.05159 | -89.98513 | 302 ft | 19 kts | 0° |
| 2026-05-07 01:21 | 35.05322 | -89.98512 | 288 ft | 26 kts | 0° |
| 2026-05-07 01:21 | 35.05518 | -89.98509 | 273 ft | 31 kts | 1° |
| 2026-05-07 01:21 | 35.05725 | -89.98508 | 263 ft | 28 kts | 359° |
| 2026-05-07 01:22 | 35.05921 | -89.98511 | 266 ft | 28 kts | 356° |
| 2026-05-07 01:22 | 35.06076 | -89.98528 | 266 ft | 21 kts | 353° |
| 2026-05-07 01:22 | 35.06224 | -89.98528 | 268 ft | 21 kts | 2° |
| 2026-05-07 01:22 | 35.06359 | -89.98485 | 268 ft | 21 kts | 63° |
| 2026-05-07 01:23 | 35.06364 | -89.98314 | 267 ft | 19 kts | 93° |
| 2026-05-07 01:23 | 35.06359 | -89.98171 | 266 ft | 16 kts | 92° |
| 2026-05-07 01:23 | 35.06356 | -89.98067 | 266 ft | 12 kts | 92° |
| 2026-05-07 01:23 | 35.06382 | -89.98031 | 268 ft | 6 kts | 11° |
| 2026-05-07 01:24 | 35.06424 | -89.98026 | 266 ft | 3 kts | 3° |
| 2026-05-07 01:24 | 35.06427 | -89.98026 | 265 ft | 0 kts | 2° |